Weather at H4 Air Base

Public forecast

Using degrees Celsius for public forecast. Weather courtesy of forecast.io.

Closest aviation weather report (METAR) to H4 Air Base

Closest report is Turaif Domestic Airport, 57.7 nm (106.9 km) SSE.

2024/06/19 06:00 (retrieved 49 minutes ago)

OETR 190600Z 12014KT CAVOK 34/M02 Q1012 NOSIG

Closest aviation forecast (TAF) to H4 Air Base

Closest forecast is Damascus International Airport, 99.5 nm (184.3 km) WNW.

2024/06/19 06:00 (retrieved 49 minutes ago)

TAF OSDI 190600Z 1906/2012 06005KT CAVOK